Notice: Undefined index: language in /home/u908952976/domains/airgaviota-va.com/public_html/vam/index.php on line 25
AirGaviota-VA

... VIRTUAL FLIGHT...OUR PASSION



 FLIGHT DETAILS
Pilot: GVT462 Peter Voksan Aircraft: AN24_FELIS AIRGAVIOTA Distance: 80NM
Departure MUHA Arrival MUNG Duration 00:29
Validation Validated Type Regular Tail Number GV-AAN
ZFW 16189 Block Fuel/Initial FOB 462/0 Flight Fuel 358
Passengers 50 Cargo 1 Alternate MUCL
Departure Time Cruise Speed 220 Flight Level 090
Flight Type IFR Aircraft Type AN-26 Weight Unit Kg
Date 26-04-2020 Pilot Comments Network IVAO
Crashed No Validator Comments Flight Rating -30

 ROUTE
ROUTE UHA DCT UNG
REMARKS
 FLIGHT FAILURES
Crashed OK Beacon off & Engine Running Fail KIAS Above 250 below 10000 FT OK
Lights OFF below 10000 FT OK Lights ON above 10000 FT OK Stall OK
Overspeed OK Flight paused OK Refueling OK
Slew detected OK Taxi & Taxi lights off Fail Take off & lights off OK
Landing & lights off OK Landed in not planned airport OK Taxi Speed OK
Wrong altimeter in Take off Fail Wrong altimeter in Landing Fail
 LANDING ANALYSIS
Landing wind 100º/1 kt Landing heading 147
Landing VS: -98.43 ft/min Landing IAS: 85.87 kt
Landing Force G 1 G Landing Bank 0.4
Landing Pitch 2.6 Landing Flaps 38
Navigation Lights ON Landing Lights ON
Beacon Lights ON Strobe Lights OFF
 FLIGHT MAP
 ALTITUDE CHART
 FLIGHT FINANCIAL REPORT
Cargo:1 .Price per Cargo Unit:70 70.00
Number of PAX:50 .Price per PAX:65 3,250.00
TOTAL 3,320.00
 MAIN EVENTS
DATE EVENTIASALTITUDE
2020-04-26 13:00:48 SIM ACARS version 1.4.10220
2020-04-26 13:00:48 BOARDING0220
2020-04-26 13:02:09 STARTING ENGINE 1 0220
2020-04-26 13:03:05 STARTING ENGINE 2 0220
2020-04-26 13:04:05 BEACON LIGHT OFF & ENGINE ON0220
2020-04-26 13:04:59 FLAPS EXTENSION 2 % 0220
2020-04-26 13:04:59 FLAPS EXTENSION 4 % 0220
2020-04-26 13:04:59 FLAPS EXTENSION 5 % 0220
2020-04-26 13:04:59 FLAPS EXTENSION 6 % 0220
2020-04-26 13:04:59 FLAPS EXTENSION 7 % 0220
2020-04-26 13:05:00 FLAPS EXTENSION 11 % 0220
2020-04-26 13:05:00 FLAPS EXTENSION 13 % 0220
2020-04-26 13:05:00 FLAPS EXTENSION 16 % 0220
2020-04-26 13:05:00 FLAPS EXTENSION 17 % 0220
2020-04-26 13:05:00 FLAPS EXTENSION 18 % 0220
2020-04-26 13:05:01 FLAPS EXTENSION 19 % 0220
2020-04-26 13:05:01 FLAPS EXTENSION 21 % 0220
2020-04-26 13:05:01 FLAPS EXTENSION 22 % 0220
2020-04-26 13:05:01 FLAPS EXTENSION 23 % 0220
2020-04-26 13:05:01 FLAPS EXTENSION 24 % 0220
2020-04-26 13:05:01 FLAPS EXTENSION 25 % 0220
2020-04-26 13:05:01 FLAPS EXTENSION 26 % 0220
2020-04-26 13:05:02 FLAPS EXTENSION 28 % 0220
2020-04-26 13:05:02 FLAPS EXTENSION 31 % 0220
2020-04-26 13:05:02 FLAPS EXTENSION 31 % 0220
2020-04-26 13:05:02 FLAPS EXTENSION 33 % 0220
2020-04-26 13:05:03 FLAPS EXTENSION 35 % 0220
2020-04-26 13:05:03 FLAPS EXTENSION 36 % 0220
2020-04-26 13:05:03 FLAPS EXTENSION 37 % 0220
2020-04-26 13:05:03 FLAPS EXTENSION 37 % 0220
2020-04-26 13:08:39 TAXI TO THE RWY 11220
2020-04-26 13:08:40 TAXING WITH TAXI LIGHTS OFF11220
2020-04-26 13:11:51 ROLLING FOR TAKE OFF59220
2020-04-26 13:12:05 TAKE OFF109225
2020-04-26 13:12:22 GEAR UP99688
2020-04-26 13:13:10 GEAR DOWN103917
2020-04-26 13:13:11 GEAR UP103920
2020-04-26 13:13:14 FLAPS EXTENSION 36 % 1031833
2020-04-26 13:13:14 FLAPS EXTENSION 35 % 1031838
2020-04-26 13:13:14 FLAPS EXTENSION 33 % 1031841
2020-04-26 13:13:14 FLAPS EXTENSION 32 % 1031845
2020-04-26 13:13:15 FLAPS EXTENSION 31 % 1031849
2020-04-26 13:13:15 FLAPS EXTENSION 29 % 1031853
2020-04-26 13:13:15 FLAPS EXTENSION 28 % 1031857
2020-04-26 13:13:15 FLAPS EXTENSION 27 % 1031860
2020-04-26 13:15:17 FLAPS EXTENSION 26 % 1054846
2020-04-26 13:15:17 FLAPS EXTENSION 25 % 1064850
2020-04-26 13:15:17 FLAPS EXTENSION 21 % 1064854
2020-04-26 13:15:18 FLAPS EXTENSION 18 % 1074859
2020-04-26 13:15:18 FLAPS EXTENSION 15 % 1074863
2020-04-26 13:15:18 FLAPS EXTENSION 13 % 1074866
2020-04-26 13:15:19 FLAPS EXTENSION 12 % 1084870
2020-04-26 13:15:51 FLAPS EXTENSION 11 % 1225483
2020-04-26 13:15:51 FLAPS EXTENSION 10 % 1225487
2020-04-26 13:15:51 FLAPS EXTENSION 8 % 1225492
2020-04-26 13:15:52 FLAPS EXTENSION 6 % 1225498
2020-04-26 13:15:52 FLAPS EXTENSION 4 % 1225505
2020-04-26 13:15:52 FLAPS EXTENSION 3 % 1225510
2020-04-26 13:15:52 FLAPS EXTENSION 1 % 1225516
2020-04-26 13:15:53 FLAPS EXTENSION 0 % 1225522
2020-04-26 13:19:55 CRUISE1759072
2020-04-26 13:21:15 DESCEND2118982
2020-04-26 13:24:05 CRUISE2107991
2020-04-26 13:25:05 DESCEND2147728
2020-04-26 13:34:05 CRUISE1822423
2020-04-26 13:34:45 DESCEND1712247
2020-04-26 13:35:15 CRUISE1582214
2020-04-26 13:36:05 DESCEND1502035
2020-04-26 13:37:24 GEAR DOWN1351762
2020-04-26 13:37:27 FLAPS EXTENSION 2 % 1331749
2020-04-26 13:37:28 FLAPS EXTENSION 4 % 1331745
2020-04-26 13:37:28 FLAPS EXTENSION 5 % 1331743
2020-04-26 13:37:28 FLAPS EXTENSION 6 % 1331743
2020-04-26 13:37:28 FLAPS EXTENSION 8 % 1331741
2020-04-26 13:37:29 FLAPS EXTENSION 11 % 1331739
2020-04-26 13:37:29 FLAPS EXTENSION 12 % 1331738
2020-04-26 13:37:29 FLAPS EXTENSION 13 % 1331737
2020-04-26 13:37:41 FLAPS EXTENSION 15 % 1241757
2020-04-26 13:37:41 FLAPS EXTENSION 17 % 1241757
2020-04-26 13:37:41 FLAPS EXTENSION 18 % 1261757
2020-04-26 13:37:42 FLAPS EXTENSION 21 % 1261756
2020-04-26 13:37:42 FLAPS EXTENSION 22 % 1251756
2020-04-26 13:37:42 FLAPS EXTENSION 24 % 1251755
2020-04-26 13:37:42 FLAPS EXTENSION 25 % 1251758
2020-04-26 13:37:43 FLAPS EXTENSION 27 % 1251758
2020-04-26 13:37:43 FLAPS EXTENSION 28 % 1251758
2020-04-26 13:37:43 FLAPS EXTENSION 29 % 1251758
2020-04-26 13:37:43 FLAPS EXTENSION 30 % 1241758
2020-04-26 13:37:44 FLAPS EXTENSION 33 % 1241758
2020-04-26 13:37:44 FLAPS EXTENSION 34 % 1221758
2020-04-26 13:37:44 FLAPS EXTENSION 35 % 1221759
2020-04-26 13:37:44 FLAPS EXTENSION 37 % 1211759
2020-04-26 13:37:44 FLAPS EXTENSION 37 % 1211759
2020-04-26 13:37:59 FLAPS EXTENSION 42 % 1131731
2020-04-26 13:37:59 FLAPS EXTENSION 43 % 1131729
2020-04-26 13:37:59 FLAPS EXTENSION 45 % 1131728
2020-04-26 13:37:59 FLAPS EXTENSION 46 % 1131726
2020-04-26 13:37:59 FLAPS EXTENSION 47 % 1131726
2020-04-26 13:38:00 FLAPS EXTENSION 48 % 1131725
2020-04-26 13:38:00 FLAPS EXTENSION 50 % 1131724
2020-04-26 13:38:00 FLAPS EXTENSION 51 % 1131723
2020-04-26 13:38:00 FLAPS EXTENSION 52 % 1131722
2020-04-26 13:38:00 FLAPS EXTENSION 53 % 1131721
2020-04-26 13:38:01 FLAPS EXTENSION 54 % 1131720
2020-04-26 13:38:01 FLAPS EXTENSION 56 % 1131719
2020-04-26 13:38:01 FLAPS EXTENSION 57 % 1121719
2020-04-26 13:38:01 FLAPS EXTENSION 58 % 1121718
2020-04-26 13:38:01 FLAPS EXTENSION 59 % 1121717
2020-04-26 13:38:01 FLAPS EXTENSION 60 % 1101716
2020-04-26 13:38:02 FLAPS EXTENSION 61 % 1101716
2020-04-26 13:38:02 FLAPS EXTENSION 62 % 1101715
2020-04-26 13:38:05 FLAPS EXTENSION 62 % 1081714
2020-04-26 13:38:05 FLAPS EXTENSION 64 % 1081714
2020-04-26 13:38:05 FLAPS EXTENSION 65 % 1061714
2020-04-26 13:38:06 FLAPS EXTENSION 66 % 1051714
2020-04-26 13:38:06 FLAPS EXTENSION 68 % 1051714
2020-04-26 13:38:06 FLAPS EXTENSION 69 % 1051714
2020-04-26 13:38:06 FLAPS EXTENSION 70 % 1051714
2020-04-26 13:38:06 FLAPS EXTENSION 71 % 1051715
2020-04-26 13:38:06 FLAPS EXTENSION 73 % 1041715
2020-04-26 13:38:07 FLAPS EXTENSION 74 % 1041715
2020-04-26 13:38:07 FLAPS EXTENSION 75 % 1041715
2020-04-26 13:38:07 FLAPS EXTENSION 76 % 1031719
2020-04-26 13:38:07 FLAPS EXTENSION 77 % 1031719
2020-04-26 13:38:07 FLAPS EXTENSION 78 % 1031720
2020-04-26 13:38:08 FLAPS EXTENSION 80 % 1021720
2020-04-26 13:38:08 FLAPS EXTENSION 82 % 1021721
2020-04-26 13:38:08 FLAPS EXTENSION 83 % 1021721
2020-04-26 13:38:08 FLAPS EXTENSION 84 % 1011722
2020-04-26 13:38:09 FLAPS EXTENSION 85 % 1011722
2020-04-26 13:38:09 FLAPS EXTENSION 86 % 1011722
2020-04-26 13:38:09 FLAPS EXTENSION 87 % 1001723
2020-04-26 13:38:09 FLAPS EXTENSION 87 % 1001724
2020-04-26 13:38:09 FLAPS EXTENSION 90 % 991724
2020-04-26 13:38:10 FLAPS EXTENSION 91 % 991724
2020-04-26 13:38:10 FLAPS EXTENSION 92 % 991725
2020-04-26 13:38:10 FLAPS EXTENSION 93 % 981725
2020-04-26 13:38:10 FLAPS EXTENSION 94 % 981726
2020-04-26 13:38:10 FLAPS EXTENSION 95 % 971726
2020-04-26 13:38:11 FLAPS EXTENSION 96 % 971726
2020-04-26 13:38:11 FLAPS EXTENSION 97 % 971726
2020-04-26 13:38:11 FLAPS EXTENSION 98 % 961727
2020-04-26 13:38:11 FLAPS EXTENSION 98 % 951727
2020-04-26 13:38:12 FLAPS EXTENSION 98 % 951728
2020-04-26 13:38:17 FLAPS EXTENSION 100 % 881698
2020-04-26 13:40:45 CRUISE88414
2020-04-26 13:41:25 DESCEND92203
2020-04-26 13:41:52 LANDING8693
2020-04-26 13:42:05 TAXI TO THE GATE2090
2020-04-26 13:42:36 FLAPS EXTENSION 99 % 2290
2020-04-26 13:42:37 FLAPS EXTENSION 97 % 2290
2020-04-26 13:42:37 FLAPS EXTENSION 96 % 2390
2020-04-26 13:42:37 FLAPS EXTENSION 95 % 2390
2020-04-26 13:42:37 FLAPS EXTENSION 93 % 2390
2020-04-26 13:42:37 FLAPS EXTENSION 92 % 2390
2020-04-26 13:42:37 FLAPS EXTENSION 91 % 2390
2020-04-26 13:42:38 FLAPS EXTENSION 89 % 2390
2020-04-26 13:42:38 FLAPS EXTENSION 87 % 2390
2020-04-26 13:42:38 FLAPS EXTENSION 86 % 2290
2020-04-26 13:42:39 FLAPS EXTENSION 84 % 1990
2020-04-26 13:42:39 FLAPS EXTENSION 83 % 1890
2020-04-26 13:42:39 FLAPS EXTENSION 81 % 1890
2020-04-26 13:42:39 FLAPS EXTENSION 80 % 1890
2020-04-26 13:42:39 FLAPS EXTENSION 79 % 1890
2020-04-26 13:42:40 FLAPS EXTENSION 76 % 1890
2020-04-26 13:42:40 FLAPS EXTENSION 74 % 1990
2020-04-26 13:42:40 FLAPS EXTENSION 73 % 1990
2020-04-26 13:42:40 FLAPS EXTENSION 72 % 1990
2020-04-26 13:42:41 FLAPS EXTENSION 71 % 1990
2020-04-26 13:42:41 FLAPS EXTENSION 70 % 1990
2020-04-26 13:42:41 FLAPS EXTENSION 69 % 1990
2020-04-26 13:42:41 FLAPS EXTENSION 67 % 2090
2020-04-26 13:42:42 FLAPS EXTENSION 65 % 2090
2020-04-26 13:42:42 FLAPS EXTENSION 64 % 1990
2020-04-26 13:42:42 FLAPS EXTENSION 63 % 1890
2020-04-26 13:42:42 FLAPS EXTENSION 62 % 1790
2020-04-26 13:42:43 FLAPS EXTENSION 61 % 1790
2020-04-26 13:42:43 FLAPS EXTENSION 60 % 1690
2020-04-26 13:42:43 FLAPS EXTENSION 59 % 1590
2020-04-26 13:42:43 FLAPS EXTENSION 58 % 1490
2020-04-26 13:42:43 FLAPS EXTENSION 57 % 1390
2020-04-26 13:42:43 FLAPS EXTENSION 56 % 1290
2020-04-26 13:42:44 FLAPS EXTENSION 55 % 1190
2020-04-26 13:42:44 FLAPS EXTENSION 54 % 1090
2020-04-26 13:42:44 FLAPS EXTENSION 53 % 1190
2020-04-26 13:42:44 FLAPS EXTENSION 53 % 1090
2020-04-26 13:42:44 FLAPS EXTENSION 52 % 1190
2020-04-26 13:42:45 FLAPS EXTENSION 50 % 590
2020-04-26 13:42:45 FLAPS EXTENSION 49 % 390
2020-04-26 13:42:45 FLAPS EXTENSION 47 % 190
2020-04-26 13:42:45 FLAPS EXTENSION 46 % 190
2020-04-26 13:42:46 FLAPS EXTENSION 46 % 190
2020-04-26 13:42:46 FLAPS EXTENSION 44 % 190
2020-04-26 13:42:46 FLAPS EXTENSION 43 % 290
2020-04-26 13:42:46 FLAPS EXTENSION 42 % 290
2020-04-26 13:42:47 FLAPS EXTENSION 40 % 290
2020-04-26 13:42:47 FLAPS EXTENSION 39 % 390
2020-04-26 13:42:47 FLAPS EXTENSION 39 % 390
2020-04-26 13:42:47 FLAPS EXTENSION 38 % 390
2020-04-26 13:42:48 FLAPS EXTENSION 37 % 390
2020-04-26 13:42:48 FLAPS EXTENSION 35 % 390
2020-04-26 13:42:48 FLAPS EXTENSION 35 % 490
2020-04-26 13:42:48 FLAPS EXTENSION 34 % 490
2020-04-26 13:42:49 FLAPS EXTENSION 33 % 390
2020-04-26 13:42:49 FLAPS EXTENSION 32 % 290
2020-04-26 13:42:49 FLAPS EXTENSION 31 % 290
2020-04-26 13:42:49 FLAPS EXTENSION 31 % 290
2020-04-26 13:42:49 FLAPS EXTENSION 30 % 290
2020-04-26 13:42:50 FLAPS EXTENSION 29 % 390
2020-04-26 13:42:50 FLAPS EXTENSION 27 % 386
2020-04-26 13:42:50 FLAPS EXTENSION 26 % 386
2020-04-26 13:42:50 FLAPS EXTENSION 25 % 386
2020-04-26 13:42:51 FLAPS EXTENSION 24 % 486
2020-04-26 13:42:51 FLAPS EXTENSION 23 % 486
2020-04-26 13:42:51 FLAPS EXTENSION 22 % 486
2020-04-26 13:42:52 FLAPS EXTENSION 21 % 486
2020-04-26 13:42:52 FLAPS EXTENSION 20 % 586
2020-04-26 13:42:53 FLAPS EXTENSION 19 % 586
2020-04-26 13:42:53 FLAPS EXTENSION 19 % 586
2020-04-26 13:42:53 FLAPS EXTENSION 16 % 686
2020-04-26 13:42:54 FLAPS EXTENSION 16 % 686
2020-04-26 13:42:54 FLAPS EXTENSION 15 % 686
2020-04-26 13:42:54 FLAPS EXTENSION 14 % 686
2020-04-26 13:42:55 FLAPS EXTENSION 12 % 786
2020-04-26 13:42:55 FLAPS EXTENSION 11 % 786
2020-04-26 13:42:56 FLAPS EXTENSION 10 % 886
2020-04-26 13:42:56 FLAPS EXTENSION 9 % 886
2020-04-26 13:42:57 FLAPS EXTENSION 8 % 886
2020-04-26 13:42:57 FLAPS EXTENSION 6 % 886
2020-04-26 13:42:57 FLAPS EXTENSION 5 % 886
2020-04-26 13:42:58 FLAPS EXTENSION 3 % 986
2020-04-26 13:42:59 FLAPS EXTENSION 1 % 986
2020-04-26 13:42:59 FLAPS EXTENSION 1 % 986
2020-04-26 13:42:59 FLAPS EXTENSION 0 % 1086
2020-04-26 13:44:16 STOPPING ENGINE 2 190
2020-04-26 13:44:19 STARTING ENGINE 2 190
2020-04-26 13:44:21 STOPPING ENGINE 2 190
 ACARS DATA
DATE IASGSALTITUDEFUEL CONSUMED OATFLIGHT STATUS
2020-04-26 13:01:4800219123BOARDING
2020-04-26 13:02:4800219323BOARDING
2020-04-26 13:03:48002191023BOARDING
2020-04-26 13:04:48002191823BOARDING
2020-04-26 13:05:48002192523BOARDING
2020-04-26 13:06:48002193222BOARDING
2020-04-26 13:07:48002194122BOARDING
2020-04-26 13:08:4817172194922TAXI TO THE RWY
2020-04-26 13:09:4815152195722TAXI TO THE RWY
2020-04-26 13:10:48552196622TAXI TO THE RWY
2020-04-26 13:11:4840412197622TAXI TO THE RWY
2020-04-26 13:12:4896994599820CLIMBING
2020-04-26 13:13:48110115259211817CLIMBING
2020-04-26 13:14:48111118407713914CLIMBING
2020-04-26 13:15:48122135539115811CLIMBING
2020-04-26 13:16:4814716462821749CLIMBING
2020-04-26 13:17:4815317373401896CLIMBING
2020-04-26 13:18:4815317584732034CLIMBING
2020-04-26 13:19:4817019690682133CLIMBING
2020-04-26 13:20:4820223290372303CRUISE
2020-04-26 13:21:4821124190092423DESCEND
2020-04-26 13:22:4823426580062544DESCEND
2020-04-26 13:23:4821424179922655DESCEND
2020-04-26 13:24:4820823579132725CRUISE
2020-04-26 13:25:4821624473232866DESCEND
2020-04-26 13:26:4821223667012948DESCEND
2020-04-26 13:27:4821223460793039DESCEND
2020-04-26 13:28:48213232552130710DESCEND
2020-04-26 13:29:48212230493532012DESCEND
2020-04-26 13:30:48217233423932813DESCEND
2020-04-26 13:31:48219233344333815DESCEND
2020-04-26 13:32:48216227275834816DESCEND
2020-04-26 13:33:48186195254435717DESCEND
2020-04-26 13:34:48170178223536418DESCEND
2020-04-26 13:35:48154160205337218CRUISE
2020-04-26 13:36:48146151176737719DESCEND
2020-04-26 13:37:48117120176438319DESCEND
2020-04-26 13:38:488790161740319DESCEND
2020-04-26 13:39:4899103111441520DESCEND
2020-04-26 13:40:48878941742622CRUISE
2020-04-26 13:41:4887899843822DESCEND
2020-04-26 13:42:48338944722TAXI TO THE GATE
2020-04-26 13:43:48008945622TAXI TO THE GATE
2020-04-26 13:44:48008946222TAXI TO THE GATE